createdAt,value
2018-11-06T00:02:01.140Z,99297.27
2018-11-06T00:04:27.196Z,99311.62
2018-11-06T00:06:53.217Z,99304.68
2018-11-06T00:09:19.268Z,99305.95
2018-11-06T00:11:45.175Z,99308.42
2018-11-06T00:14:11.129Z,99294.50
2018-11-06T00:16:37.084Z,99301.13
2018-11-06T00:19:03.078Z,99308.08
2018-11-06T00:21:29.092Z,99312.34
2018-11-06T00:23:55.049Z,99299.92
2018-11-06T00:26:21.059Z,99313.02
2018-11-06T00:28:47.005Z,99306.25
2018-11-06T00:31:13.038Z,99312.84
2018-11-06T00:33:39.013Z,99294.02
2018-11-06T00:36:04.991Z,99297.67
2018-11-06T00:38:30.968Z,99300.44
2018-11-06T00:40:56.965Z,99306.02
2018-11-06T00:43:22.980Z,99301.59
2018-11-06T00:45:48.963Z,99300.23
2018-11-06T00:48:14.928Z,99296.27
2018-11-06T00:50:40.916Z,99296.48
2018-11-06T00:53:06.871Z,99296.40
2018-11-06T00:55:32.844Z,99301.69
2018-11-06T00:57:58.799Z,99292.16
2018-11-06T01:00:24.793Z,99294.66
2018-11-06T01:02:51.580Z,99307.84
2018-11-06T01:05:17.536Z,99298.97
2018-11-06T01:07:43.592Z,99297.67
2018-11-06T01:10:09.601Z,99300.37
2018-11-06T01:12:35.915Z,99306.69
2018-11-06T01:15:01.893Z,99300.41
2018-11-06T01:17:27.861Z,99300.61
2018-11-06T01:19:53.862Z,99300.17
2018-11-06T01:22:19.821Z,99288.05
2018-11-06T01:24:45.806Z,99295.30
2018-11-06T01:27:11.754Z,99301.80
2018-11-06T01:29:37.723Z,99303.81
2018-11-06T01:32:03.793Z,99294.80
2018-11-06T01:34:29.736Z,99291.58
2018-11-06T01:36:55.728Z,99286.90
2018-11-06T01:39:21.709Z,99301.34
2018-11-06T01:41:47.689Z,99295.61
2018-11-06T01:44:13.647Z,99301.89
2018-11-06T01:46:39.615Z,99292.22
2018-11-06T01:49:05.580Z,99300.23
2018-11-06T01:51:31.561Z,99307.23
2018-11-06T01:53:57.526Z,99300.91
2018-11-06T01:56:23.505Z,99300.12
2018-11-06T01:58:49.489Z,99300.61
2018-11-06T02:01:15.577Z,99300.44
2018-11-06T02:03:41.540Z,99301.59
2018-11-06T02:06:07.520Z,99299.50
2018-11-06T02:08:33.536Z,99298.54
2018-11-06T02:10:59.507Z,99300.60
2018-11-06T02:13:25.463Z,99303.89
2018-11-06T02:15:51.445Z,99296.34
2018-11-06T02:18:17.400Z,99297.33
2018-11-06T02:20:43.345Z,99301.80
2018-11-06T02:23:09.295Z,99306.69
2018-11-06T02:25:35.238Z,99299.27
2018-11-06T02:28:01.223Z,99295.11
2018-11-06T02:30:27.191Z,99308.16
2018-11-06T02:32:53.131Z,99302.30
2018-11-06T02:35:19.113Z,99310.66
2018-11-06T02:37:45.089Z,99311.82
2018-11-06T02:40:11.048Z,99295.93
2018-11-06T02:42:37.009Z,99292.68
2018-11-06T02:45:02.998Z,99294.45
2018-11-06T02:47:28.976Z,99299.02
2018-11-06T02:49:54.919Z,99292.97
2018-11-06T02:52:20.889Z,99304.43
2018-11-06T02:54:46.896Z,99309.52
2018-11-06T02:57:12.865Z,99302.92
2018-11-06T02:59:38.833Z,99295.27
2018-11-06T03:02:05.375Z,99290.64
2018-11-06T03:04:31.323Z,99288.88
2018-11-06T03:06:57.289Z,99299.55
2018-11-06T03:09:23.256Z,99310.20
2018-11-06T03:11:49.242Z,99316.66
2018-11-06T03:14:15.208Z,99317.42
2018-11-06T03:16:41.248Z,99314.17
2018-11-06T03:19:07.207Z,99330.47
2018-11-06T03:21:33.149Z,99333.52
2018-11-06T03:23:59.128Z,99331.80
2018-11-06T03:26:25.076Z,99332.70
2018-11-06T03:28:51.072Z,99340.88
2018-11-06T03:31:17.031Z,99338.70
2018-11-06T03:33:46.544Z,99340.31
2018-11-06T03:36:12.493Z,99338.45
2018-11-06T03:38:38.449Z,99327.69
2018-11-06T03:41:04.408Z,99329.42
2018-11-06T03:43:30.384Z,99335.24
2018-11-06T03:45:56.327Z,99327.80
2018-11-06T03:48:22.333Z,99328.29
2018-11-06T03:50:48.289Z,99333.19
2018-11-06T03:53:14.270Z,99335.27
2018-11-06T03:55:40.261Z,99330.36
2018-11-06T03:58:06.226Z,99345.37
2018-11-06T04:00:32.804Z,99339.27
2018-11-06T04:02:58.804Z,99344.05
2018-11-06T04:05:24.770Z,99349.75
2018-11-06T04:07:50.732Z,99348.32
2018-11-06T04:10:16.796Z,99343.70
2018-11-06T04:12:42.814Z,99342.80
2018-11-06T04:15:11.951Z,99345.55
2018-11-06T04:17:38.034Z,99340.81
2018-11-06T04:20:06.022Z,99342.71
2018-11-06T04:22:32.038Z,99351.93
2018-11-06T04:24:58.715Z,99345.62
2018-11-06T04:27:25.694Z,99340.20
2018-11-06T04:29:51.647Z,99344.19
2018-11-06T04:32:17.660Z,99347.42
2018-11-06T04:34:44.561Z,99339.48
2018-11-06T04:37:10.510Z,99339.38
2018-11-06T04:39:36.480Z,99339.26
2018-11-06T04:42:02.455Z,99340.68
2018-11-06T04:44:28.412Z,99343.76
2018-11-06T04:46:54.372Z,99343.20
2018-11-06T04:49:20.598Z,99348.98
2018-11-06T04:51:46.572Z,99348.36
2018-11-06T04:54:12.605Z,99346.07
2018-11-06T04:56:38.565Z,99351.31
2018-11-06T04:59:04.752Z,99342.08
2018-11-06T05:01:30.689Z,99340.59
2018-11-06T05:03:56.654Z,99340.42
2018-11-06T05:06:22.617Z,99344.63
2018-11-06T05:08:48.579Z,99347.59
2018-11-06T05:11:14.536Z,99341.81
2018-11-06T05:13:40.509Z,99349.62
2018-11-06T05:16:06.454Z,99342.74
2018-11-06T05:18:32.418Z,99353.32
2018-11-06T05:20:58.379Z,99353.27
2018-11-06T05:23:24.325Z,99350.91
2018-11-06T05:25:50.271Z,99349.74
2018-11-06T05:28:16.205Z,99346.70
2018-11-06T05:30:42.182Z,99353.32
2018-11-06T05:33:08.130Z,99349.02
2018-11-06T05:35:34.106Z,99351.08
2018-11-06T05:38:00.075Z,99354.71
2018-11-06T05:40:26.021Z,99363.17
2018-11-06T05:42:51.966Z,99367.87
2018-11-06T05:45:17.912Z,99368.70
2018-11-06T05:47:43.882Z,99360.70
2018-11-06T05:50:09.851Z,99363.32
2018-11-06T05:52:35.794Z,99368.05
2018-11-06T05:55:01.739Z,99365.39
2018-11-06T05:57:27.698Z,99369.90
2018-11-06T05:59:53.668Z,99368.63
2018-11-06T06:02:19.633Z,99369.30
2018-11-06T06:04:45.937Z,99373.76
2018-11-06T06:07:11.900Z,99365.50
2018-11-06T06:09:37.853Z,99371.05
2018-11-06T06:12:03.813Z,99388.72
2018-11-06T06:14:29.772Z,99379.45
2018-11-06T06:16:55.845Z,99384.97
2018-11-06T06:19:21.735Z,99381.06
2018-11-06T06:21:47.687Z,99388.41
2018-11-06T06:24:13.621Z,99385.48
2018-11-06T06:26:39.592Z,99389.80
2018-11-06T06:29:05.524Z,99392.49
2018-11-06T06:31:31.524Z,99402.16
2018-11-06T06:33:57.524Z,99398.20
2018-11-06T06:36:23.481Z,99397.63
2018-11-06T06:38:49.565Z,99396.77
2018-11-06T06:41:15.469Z,99391.34
2018-11-06T06:43:41.412Z,99399.33
2018-11-06T06:46:07.449Z,99396.56
2018-11-06T06:48:33.363Z,99403.74
2018-11-06T06:50:59.347Z,99403.20
2018-11-06T06:53:25.327Z,99400.16
2018-11-06T06:55:51.309Z,99405.33
2018-11-06T06:58:17.423Z,99410.17
2018-11-06T07:00:43.401Z,99417.39
2018-11-06T07:03:09.365Z,99412.35
2018-11-06T07:05:35.321Z,99417.86
2018-11-06T07:08:01.277Z,99416.40
2018-11-06T07:10:27.229Z,99427.66
2018-11-06T07:12:53.235Z,99425.47
2018-11-06T07:15:19.168Z,99431.92
2018-11-06T07:17:45.128Z,99430.59
2018-11-06T07:20:11.083Z,99432.77
2018-11-06T07:22:37.013Z,99433.09
2018-11-06T07:25:02.998Z,99433.33
2018-11-06T07:27:28.977Z,99432.39
2018-11-06T07:29:54.949Z,99425.30
2018-11-06T07:32:20.942Z,99434.49
2018-11-06T07:34:47.005Z,99436.99
2018-11-06T07:37:12.859Z,99435.13
2018-11-06T07:39:38.824Z,99435.65
2018-11-06T07:42:04.781Z,99438.06
2018-11-06T07:44:30.744Z,99442.22
2018-11-06T07:46:56.686Z,99433.14
2018-11-06T07:49:22.644Z,99434.03
2018-11-06T07:51:48.623Z,99439.72
2018-11-06T07:54:14.562Z,99438.16
2018-11-06T07:56:40.509Z,99440.79
2018-11-06T07:59:06.442Z,99447.19
2018-11-06T08:01:32.376Z,99448.55
2018-11-06T08:03:58.331Z,99435.69
2018-11-06T08:06:24.369Z,99434.03
2018-11-06T08:08:50.297Z,99421.58
2018-11-06T08:11:16.269Z,99424.47
2018-11-06T08:13:42.224Z,99428.10
2018-11-06T08:16:08.200Z,99426.50
2018-11-06T08:18:34.134Z,99423.81
2018-11-06T08:21:00.090Z,99429.87
2018-11-06T08:23:26.030Z,99432.88
2018-11-06T08:25:51.998Z,99433.38
2018-11-06T08:28:17.949Z,99441.79
2018-11-06T08:30:44.086Z,99417.02
2018-11-06T08:33:09.914Z,99427.45
2018-11-06T08:35:35.875Z,99425.91
2018-11-06T08:38:01.839Z,99435.22
2018-11-06T08:40:27.798Z,99449.23
2018-11-06T08:42:53.757Z,99420.19
2018-11-06T08:45:19.711Z,99437.75
2018-11-06T08:47:45.665Z,99422.86
2018-11-06T08:50:11.644Z,99418.38
2018-11-06T08:52:37.591Z,99426.58
2018-11-06T08:55:03.534Z,99432.48
2018-11-06T08:57:29.574Z,99440.83
2018-11-06T08:59:55.551Z,99444.37
2018-11-06T09:02:21.535Z,99445.09
2018-11-06T09:04:47.481Z,99434.75
2018-11-06T09:07:13.418Z,99443.19
2018-11-06T09:09:39.383Z,99433.20
2018-11-06T09:12:05.396Z,99442.45
2018-11-06T09:14:31.371Z,99428.72
2018-11-06T09:16:57.401Z,99440.78
2018-11-06T09:19:23.292Z,99447.94
2018-11-06T09:21:49.264Z,99439.91
2018-11-06T09:24:15.327Z,99440.27
2018-11-06T09:26:41.291Z,99439.69
2018-11-06T09:29:07.257Z,99445.78
2018-11-06T09:31:33.217Z,99445.72
2018-11-06T09:33:59.160Z,99441.94
2018-11-06T09:36:25.145Z,99446.40
2018-11-06T09:38:51.865Z,99443.83
2018-11-06T09:41:17.837Z,99430.50
2018-11-06T09:43:43.856Z,99426.57
2018-11-06T09:46:09.867Z,99433.41
2018-11-06T09:48:35.830Z,99433.28
2018-11-06T09:51:01.802Z,99442.63
2018-11-06T09:53:27.804Z,99439.51
2018-11-06T09:55:53.886Z,99441.94
2018-11-06T09:58:19.956Z,99440.77
2018-11-06T10:00:45.889Z,99423.22
2018-11-06T10:03:11.858Z,99430.56
2018-11-06T10:05:37.950Z,99427.91
2018-11-06T10:08:03.924Z,99417.18
2018-11-06T10:10:29.884Z,99430.89
2018-11-06T10:12:55.882Z,99425.39
2018-11-06T10:15:21.890Z,99437.13
2018-11-06T10:17:47.844Z,99441.07
2018-11-06T10:20:13.784Z,99417.23
2018-11-06T10:22:39.756Z,99413.36
2018-11-06T10:25:05.718Z,99424.88
2018-11-06T10:27:31.721Z,99421.54
2018-11-06T10:29:57.688Z,99418.23
2018-11-06T10:32:23.657Z,99417.48
2018-11-06T10:34:49.628Z,99413.89
2018-11-06T10:37:15.582Z,99415.59
2018-11-06T10:39:41.563Z,99410.58
2018-11-06T10:42:07.551Z,99420.17
2018-11-06T10:44:33.517Z,99416.98
2018-11-06T10:46:59.472Z,99422.33
2018-11-06T10:49:25.442Z,99417.42
2018-11-06T10:51:51.472Z,99426.45
2018-11-06T10:54:17.418Z,99410.73
2018-11-06T10:56:43.415Z,99415.80
2018-11-06T10:59:09.390Z,99402.78
2018-11-06T11:01:35.379Z,99411.20
2018-11-06T11:04:01.391Z,99401.20
2018-11-06T11:06:27.320Z,99394.89
2018-11-06T11:08:53.284Z,99383.27
2018-11-06T11:11:19.262Z,99377.30
2018-11-06T11:13:45.250Z,99376.92
2018-11-06T11:16:11.215Z,99378.14
2018-11-06T11:18:37.199Z,99371.19
2018-11-06T11:21:03.150Z,99368.89
2018-11-06T11:23:29.130Z,99371.69
2018-11-06T11:25:55.131Z,99374.26
2018-11-06T11:28:21.125Z,99381.42
2018-11-06T11:30:47.154Z,99374.06
2018-11-06T11:33:13.140Z,99381.45
2018-11-06T11:35:39.105Z,99385.16
2018-11-06T11:38:05.077Z,99381.04
2018-11-06T11:40:31.042Z,99386.94
2018-11-06T11:42:57.002Z,99384.88
2018-11-06T11:45:22.953Z,99382.02
2018-11-06T11:47:48.893Z,99376.89
2018-11-06T11:50:14.869Z,99371.33
2018-11-06T11:52:40.836Z,99368.36
2018-11-06T11:55:06.818Z,99369.50
2018-11-06T11:57:32.800Z,99379.14
2018-11-06T11:59:58.806Z,99368.36
2018-11-06T12:02:24.715Z,99369.06
2018-11-06T12:04:52.690Z,99361.18
2018-11-06T12:07:18.618Z,99368.36
2018-11-06T12:09:44.587Z,99363.88
2018-11-06T12:12:10.547Z,99361.95
2018-11-06T12:14:36.510Z,99365.80
2018-11-06T12:17:02.472Z,99363.13
2018-11-06T12:19:28.435Z,99355.56
2018-11-06T12:21:54.470Z,99343.77
2018-11-06T12:24:20.515Z,99353.05
2018-11-06T12:26:47.382Z,99354.97
2018-11-06T12:29:13.554Z,99341.78
2018-11-06T12:31:39.767Z,99349.40
2018-11-06T12:34:10.086Z,99352.54
2018-11-06T12:36:37.478Z,99348.62
2018-11-06T12:39:08.366Z,99349.34
2018-11-06T12:41:35.290Z,99344.14
2018-11-06T12:44:01.276Z,99352.72
2018-11-06T12:46:27.237Z,99358.68
2018-11-06T12:48:54.243Z,99344.34
2018-11-06T12:51:20.208Z,99346.44
2018-11-06T12:53:46.256Z,99347.42
2018-11-06T12:56:12.305Z,99350.28
2018-11-06T12:58:38.214Z,99350.42
2018-11-06T13:01:04.191Z,99343.73
2018-11-06T13:03:30.205Z,99351.56
2018-11-06T13:05:56.135Z,99350.08
2018-11-06T13:08:22.087Z,99360.67
2018-11-06T13:10:48.124Z,99348.62
2018-11-06T13:20:48.667Z,99342.19
2018-11-06T13:23:14.604Z,99348.16
2018-11-06T13:25:40.788Z,99345.89
2018-11-06T13:28:06.719Z,99343.81
2018-11-06T13:30:32.711Z,99354.06
2018-11-06T13:35:29.942Z,99339.86
2018-11-06T13:37:55.928Z,99334.91
2018-11-06T13:40:21.878Z,99333.05
2018-11-06T13:42:47.982Z,99330.48
2018-11-06T13:45:14.087Z,99331.97
2018-11-06T13:47:43.502Z,99340.39
2018-11-06T13:52:41.284Z,99328.20
2018-11-06T13:55:07.232Z,99318.17
2018-11-06T13:57:33.189Z,99321.34
2018-11-06T13:59:59.157Z,99323.91
2018-11-06T14:02:25.124Z,99328.53
2018-11-06T14:04:51.137Z,99329.03
2018-11-06T14:07:17.083Z,99323.13
2018-11-06T14:09:43.056Z,99327.25
2018-11-06T14:12:09.006Z,99340.56
2018-11-06T14:14:34.959Z,99330.41
2018-11-06T14:17:00.929Z,99326.57
2018-11-06T14:19:26.905Z,99344.63
2018-11-06T14:21:52.901Z,99325.08
2018-11-06T14:24:18.887Z,99326.84
2018-11-06T14:26:44.931Z,99326.61
2018-11-06T14:29:10.874Z,99326.84
2018-11-06T14:31:36.839Z,99322.66
2018-11-06T14:34:02.799Z,99325.36
2018-11-06T14:36:28.778Z,99332.20
2018-11-06T14:38:54.734Z,99325.48
2018-11-06T14:41:20.717Z,99326.36
2018-11-06T14:43:46.682Z,99324.50
2018-11-06T14:46:12.655Z,99329.33
2018-11-06T14:48:38.785Z,99327.85
2018-11-06T14:51:05.317Z,99327.35
2018-11-06T14:53:31.305Z,99325.26
2018-11-06T14:55:57.327Z,99329.14
2018-11-06T14:58:26.918Z,99321.72
2018-11-06T15:00:52.870Z,99323.58
2018-11-06T15:03:18.808Z,99328.36
2018-11-06T15:05:44.850Z,99333.25
2018-11-06T15:08:10.754Z,99319.73
2018-11-06T15:10:36.698Z,99324.42
2018-11-06T15:13:02.738Z,99321.95
2018-11-06T15:15:28.693Z,99327.78
2018-11-06T15:17:54.651Z,99332.55
2018-11-06T15:20:20.605Z,99327.59
2018-11-06T15:25:17.901Z,99328.48
2018-11-06T15:27:43.861Z,99326.02
2018-11-06T15:30:09.889Z,99330.06
2018-11-06T15:32:35.862Z,99321.94
2018-11-06T15:35:01.817Z,99325.14
2018-11-06T15:37:28.804Z,99325.45
2018-11-06T15:39:54.758Z,99188.53
2018-11-06T15:42:20.824Z,99318.09
2018-11-06T15:44:46.775Z,99321.94
2018-11-06T15:47:12.795Z,99320.39
2018-11-06T15:49:38.789Z,99326.58
2018-11-06T15:52:04.787Z,99332.48
2018-11-06T15:54:30.822Z,99325.55
2018-11-06T15:56:56.737Z,99333.09
2018-11-06T15:59:22.701Z,99341.06
2018-11-06T16:01:48.712Z,99332.02
2018-11-06T16:04:14.697Z,99338.05
2018-11-06T16:06:40.704Z,99334.23
2018-11-06T16:09:06.736Z,99344.45
2018-11-06T16:11:33.782Z,99341.06
2018-11-06T16:13:59.753Z,99344.10
2018-11-06T16:16:27.797Z,99337.16
2018-11-06T16:18:53.877Z,99336.32
2018-11-06T16:21:19.853Z,99340.17
2018-11-06T16:23:45.861Z,99341.55
2018-11-06T16:26:12.869Z,99348.73
2018-11-06T16:28:38.911Z,99345.30
2018-11-06T16:31:04.976Z,99344.52
2018-11-06T16:33:31.116Z,99337.03
2018-11-06T16:35:57.127Z,99347.34
2018-11-06T16:38:23.750Z,99342.66
2018-11-06T16:40:51.804Z,99344.66
2018-11-06T16:43:17.760Z,99341.58
2018-11-06T16:45:43.724Z,99338.64
2018-11-06T16:48:09.835Z,99336.22
2018-11-06T16:50:35.772Z,99339.45
2018-11-06T16:53:01.856Z,99334.45
2018-11-06T16:55:27.833Z,99333.92
2018-11-06T16:57:53.825Z,99332.47
2018-11-06T17:00:19.923Z,99329.13
2018-11-06T17:02:48.047Z,99330.47
2018-11-06T17:05:14.020Z,99331.17
2018-11-06T17:07:39.984Z,99333.92
2018-11-06T17:10:05.978Z,99329.00
2018-11-06T17:12:33.993Z,99332.56
2018-11-06T17:14:59.974Z,99335.19
2018-11-06T17:17:26.030Z,99330.26
2018-11-06T17:19:51.958Z,99338.28
2018-11-06T17:22:19.934Z,99328.41
2018-11-06T17:24:45.973Z,99322.98
2018-11-06T17:27:11.922Z,99324.88
2018-11-06T17:29:37.938Z,99331.16
2018-11-06T17:32:03.889Z,99321.51
2018-11-06T17:34:29.839Z,99312.92
2018-11-06T17:36:55.831Z,99314.02
2018-11-06T17:39:21.878Z,99310.55
2018-11-06T17:41:47.852Z,99310.11
2018-11-06T17:44:14.022Z,99306.56
2018-11-06T17:46:40.020Z,99307.16
2018-11-06T17:49:05.992Z,99311.69
2018-11-06T17:51:31.935Z,99306.70
2018-11-06T17:53:57.878Z,99307.70
2018-11-06T17:56:23.936Z,99309.11
2018-11-06T17:58:49.964Z,99312.31
2018-11-06T18:01:15.936Z,99306.03
2018-11-06T18:03:41.908Z,99304.25
2018-11-06T18:06:07.989Z,99307.53
2018-11-06T18:08:34.007Z,99298.89
2018-11-06T18:11:02.375Z,99295.55
2018-11-06T18:13:28.511Z,99302.20
2018-11-06T18:15:55.177Z,99299.36
2018-11-06T18:18:23.479Z,99297.43
2018-11-06T18:20:49.607Z,99300.05
2018-11-06T18:23:17.342Z,99299.61
2018-11-06T18:25:50.129Z,99298.27
2018-11-06T18:28:17.530Z,99297.34
2018-11-06T18:30:44.729Z,99296.03
2018-11-06T18:33:11.602Z,99295.13
2018-11-06T18:35:41.184Z,99294.41
2018-11-06T18:38:07.538Z,99292.34
2018-11-06T18:40:34.964Z,99296.25
2018-11-06T18:43:02.070Z,99291.25
2018-11-06T18:45:28.982Z,99284.63
2018-11-06T18:47:58.764Z,99288.34
2018-11-06T18:50:26.018Z,99289.56
2018-11-06T18:52:52.209Z,99288.34
2018-11-06T18:55:19.020Z,99294.55
2018-11-06T18:57:45.256Z,99302.48
2018-11-06T19:00:11.701Z,99295.70
2018-11-06T19:02:38.899Z,99297.98
2018-11-06T19:05:05.051Z,99300.29
2018-11-06T19:07:32.892Z,99295.61
2018-11-06T19:09:59.040Z,99302.60
2018-11-06T19:12:27.110Z,99289.31
2018-11-06T19:14:53.240Z,99296.70
2018-11-06T19:17:19.454Z,99287.38
2018-11-06T19:19:45.547Z,99283.41
2018-11-06T19:22:14.826Z,99287.97
2018-11-06T19:24:41.634Z,99292.66
2018-11-06T19:27:10.868Z,99290.34
2018-11-06T19:29:37.037Z,99290.53
2018-11-06T19:34:35.982Z,99294.90
2018-11-06T19:37:02.177Z,99294.13
2018-11-06T19:39:29.018Z,99297.20
2018-11-06T19:41:55.147Z,99295.04
2018-11-06T19:44:21.281Z,99287.77
2018-11-06T19:46:47.833Z,99296.97
2018-11-06T20:34:07.055Z,99309.90
2018-11-06T20:36:33.098Z,99301.60
2018-11-06T20:39:01.360Z,99303.19
2018-11-06T20:41:29.780Z,99312.53
2018-11-06T20:43:56.972Z,99305.67
2018-11-06T20:46:23.143Z,99309.66
2018-11-06T20:48:52.613Z,99313.23
2018-11-06T20:53:51.088Z,99302.73
2018-11-06T20:56:17.130Z,99308.77
2018-11-06T20:58:45.259Z,99303.11
2018-11-06T21:01:14.558Z,99294.05
2018-11-06T21:03:40.742Z,99293.41
2018-11-06T21:10:44.859Z,99297.77
2018-11-06T21:13:19.555Z,99299.48
2018-11-06T21:15:46.621Z,99297.73
2018-11-06T21:20:44.602Z,99294.92
2018-11-06T21:23:13.316Z,99286.61
2018-11-06T21:28:11.651Z,99281.86
2018-11-06T21:30:37.912Z,99278.79
2018-11-06T21:35:36.666Z,99281.11
2018-11-06T21:40:41.060Z,99278.47
2018-11-06T21:45:38.930Z,99274.83
2018-11-06T21:48:06.022Z,99271.47
2018-11-06T21:50:38.980Z,99270.18
2018-11-06T21:53:05.149Z,99270.84
2018-11-06T21:55:31.385Z,99268.65
2018-11-06T21:57:57.519Z,99262.25
2018-11-06T22:02:55.675Z,99262.75
2018-11-06T22:05:23.001Z,99254.05
2018-11-06T22:07:49.296Z,99266.63
2018-11-06T22:10:15.670Z,99261.66
2018-11-06T22:12:52.925Z,99260.57
2018-11-06T22:17:54.057Z,99259.38
2018-11-06T22:39:00.649Z,99267.31
2018-11-06T22:41:29.656Z,99264.03
2018-11-06T22:43:57.141Z,99273.05
2018-11-06T22:49:12.995Z,99259.89
2018-11-06T22:51:38.986Z,99260.26
2018-11-06T22:54:05.952Z,99264.69
2018-11-06T22:59:07.737Z,99268.97
2018-11-06T23:15:22.096Z,99262.44
2018-11-06T23:17:54.236Z,99258.89
2018-11-06T23:20:22.609Z,99258.17
2018-11-06T23:22:50.934Z,99250.12
2018-11-06T23:25:18.057Z,99251.91
2018-11-06T23:27:44.274Z,99254.32
2018-11-06T23:30:11.528Z,99251.99
2018-11-06T23:35:33.643Z,99252.34
2018-11-06T23:38:01.060Z,99252.93
2018-11-06T23:40:29.154Z,99248.25
2018-11-06T23:42:56.216Z,99250.03
2018-11-06T23:45:23.849Z,99248.88
2018-11-06T23:50:22.492Z,99247.25
2018-11-06T23:52:48.670Z,99244.31
2018-11-06T23:55:15.918Z,99250.77
2018-11-06T23:57:42.205Z,99253.15
